»·PEaware :: N1927H KIDA-CJB8

N1927H :: KIDA-CJB8

FLIGHT INFORMATION

Flight Status: Arrived
Operator: Privately registered:
United States
More flights under this callsign
Pilot: Wayne R. (17783)
Aircraft: PIPER PA-28R-201 ARROW
(P28R)
More flights by this aircraft type
Origin: KIDA Idaho Falls Regl
United States
Destination: CJB8 Kyle
Canada
More flights between these airports :: More routes between these airports
Route:
File this flight plan on PilotEdge
Remarks:
Altitude:
(Current/Filed)
7,500ft
Speed:
(Current/Filed)
135kts
Departed: 19-Apr-20 04:06 PM
Arrived: 19-Apr-20 06:03 PM
Distance/Time
Traveled:
455nm/1:57
Distance/Time
To Go:
Arrived

Flight Plot

Page will automatically refresh every two minutes.


Map Options




Map Legend


Flown Route
Filed Route
Departure Airport
Arrival Airport
Navaid (VOR, NDB)
Fix

Horizontal Profiles

Position Reports

Time Latitude Longitude Heading Altitude Ground
Speed
19-Apr-20 16:04 47.043848 -109.476684 18 4161ft 0kts
19-Apr-20 16:05 47.056869 -109.460454 28 4376ft 99kts
19-Apr-20 16:06 47.084141 -109.445752 5 4981ft 117kts
19-Apr-20 16:07 47.116517 -109.431701 5 5451ft 123kts
19-Apr-20 16:08 47.151956 -109.417276 5 5492ft 136kts
19-Apr-20 16:09 47.188629 -109.402914 6 5492ft 138kts
19-Apr-20 16:10 47.225811 -109.388665 6 5491ft 138kts
19-Apr-20 16:11 47.262924 -109.377643 0 5490ft 135kts
19-Apr-20 16:12 47.299803 -109.369105 1 5492ft 134kts
19-Apr-20 16:13 47.336677 -109.360676 0 5492ft 134kts
19-Apr-20 16:14 47.373436 -109.353117 356 5506ft 132kts
19-Apr-20 16:15 47.408299 -109.348280 356 5815ft 123kts
19-Apr-20 16:16 47.442053 -109.343504 356 6110ft 121kts
19-Apr-20 16:17 47.475675 -109.337401 2 6403ft 123kts
19-Apr-20 16:18 47.507599 -109.331855 357 6507ft 129kts
19-Apr-20 16:19 47.543514 -109.326167 358 6496ft 131kts
19-Apr-20 16:20 47.580192 -109.320550 357 6489ft 131kts
19-Apr-20 16:21 47.613694 -109.312679 1 6478ft 133kts
19-Apr-20 16:22 47.646634 -109.303967 2 6468ft 134kts
19-Apr-20 16:23 47.676686 -109.302177 348 6689ft 120kts
19-Apr-20 16:24 47.708966 -109.305179 348 7129ft 114kts
19-Apr-20 16:25 47.740490 -109.308077 348 7569ft 113kts
19-Apr-20 16:26 47.771616 -109.310884 348 8007ft 111kts
19-Apr-20 16:27 47.802446 -109.313753 348 8445ft 109kts
19-Apr-20 16:28 47.834768 -109.317182 348 8484ft 121kts
19-Apr-20 16:29 47.868624 -109.321330 348 8477ft 123kts
19-Apr-20 16:30 47.903096 -109.325389 353 8468ft 125kts
19-Apr-20 16:31 47.938103 -109.319723 358 8465ft 126kts
19-Apr-20 16:32 47.972978 -109.313877 358 8459ft 126kts
19-Apr-20 16:33 48.007782 -109.308083 358 8453ft 126kts
19-Apr-20 16:34 48.042672 -109.300454 0 8453ft 126kts
19-Apr-20 16:35 48.077537 -109.292757 0 8453ft 127kts
19-Apr-20 16:36 48.111944 -109.285209 0 8457ft 127kts
19-Apr-20 16:37 48.147639 -109.277249 359 8457ft 127kts
19-Apr-20 16:39 48.182541 -109.269444 0 8457ft 127kts
19-Apr-20 16:40 48.217755 -109.261766 359 8456ft 127kts
19-Apr-20 16:41 48.252636 -109.254038 359 8456ft 127kts
19-Apr-20 16:42 48.287748 -109.246242 0 8456ft 127kts
19-Apr-20 16:43 48.322693 -109.238466 0 8456ft 127kts
19-Apr-20 16:44 48.357605 -109.230648 359 8456ft 127kts
19-Apr-20 16:45 48.392279 -109.222949 359 8456ft 127kts
19-Apr-20 16:46 48.427489 -109.214940 0 8455ft 127kts
19-Apr-20 16:47 48.462543 -109.207015 0 8455ft 127kts
19-Apr-20 16:48 48.497318 -109.199102 0 8456ft 127kts
19-Apr-20 16:49 48.532519 -109.191286 0 8472ft 125kts
19-Apr-20 16:50 48.567527 -109.183450 359 8455ft 127kts
19-Apr-20 16:51 48.602492 -109.175642 0 8455ft 127kts
19-Apr-20 16:52 48.637290 -109.167827 0 8455ft 126kts
19-Apr-20 16:53 48.672196 -109.159982 0 8455ft 126kts
19-Apr-20 16:54 48.706923 -109.152195 0 8455ft 126kts
19-Apr-20 16:55 48.741687 -109.144380 360 8455ft 126kts
19-Apr-20 16:56 48.776397 -109.136577 0 8454ft 126kts
19-Apr-20 16:56 48.805190 -109.130122 0 8479ft 125kts
19-Apr-20 16:58 48.845807 -109.121133 0 8455ft 126kts
19-Apr-20 16:59 48.880519 -109.113439 359 8455ft 126kts
19-Apr-20 16:59 48.909427 -109.107045 359 8454ft 126kts
19-Apr-20 17:00 48.943997 -109.099211 0 8454ft 126kts
19-Apr-20 17:02 48.984270 -109.088874 0 8454ft 126kts
19-Apr-20 17:02 49.013077 -109.081588 1 8454ft 126kts
19-Apr-20 17:03 49.047495 -109.072762 1 8454ft 125kts
19-Apr-20 17:04 49.081917 -109.063686 0 8454ft 125kts
19-Apr-20 17:05 49.116420 -109.053915 1 8449ft 126kts
19-Apr-20 17:06 49.150990 -109.043727 0 8448ft 127kts
19-Apr-20 17:07 49.185630 -109.033603 0 8448ft 127kts
19-Apr-20 17:08 49.220341 -109.023559 0 8448ft 126kts
19-Apr-20 17:09 49.254820 -109.013346 0 8448ft 127kts
19-Apr-20 17:10 49.289521 -109.003057 2 8447ft 127kts
19-Apr-20 17:11 49.323877 -108.990676 3 8448ft 126kts
19-Apr-20 17:12 49.358022 -108.978494 3 8448ft 126kts
19-Apr-20 17:13 49.392358 -108.966226 2 8448ft 126kts
19-Apr-20 17:14 49.426585 -108.953986 2 8446ft 126kts
19-Apr-20 17:15 49.460763 -108.941838 2 8441ft 126kts
19-Apr-20 17:16 49.494560 -108.929605 2 8436ft 125kts
19-Apr-20 17:17 49.528953 -108.917204 2 8431ft 126kts
19-Apr-20 17:18 49.562983 -108.904926 2 8426ft 125kts
19-Apr-20 17:19 49.597078 -108.892721 2 8422ft 125kts
19-Apr-20 17:20 49.631007 -108.880416 3 8408ft 126kts
19-Apr-20 17:21 49.665103 -108.867939 3 8390ft 126kts
19-Apr-20 17:22 49.699141 -108.855567 2 8378ft 125kts
19-Apr-20 17:23 49.733220 -108.843049 2 8365ft 125kts
19-Apr-20 17:24 49.766874 -108.830681 2 8354ft 124kts
19-Apr-20 17:25 49.800410 -108.818232 2 8357ft 124kts
19-Apr-20 17:26 49.834121 -108.806028 2 8356ft 125kts
19-Apr-20 17:27 49.867930 -108.789794 23 8203ft 138kts
19-Apr-20 17:28 49.899427 -108.760111 20 7890ft 130kts
19-Apr-20 17:29 49.930300 -108.731049 19 7582ft 130kts
19-Apr-20 17:30 49.961147 -108.702275 19 7271ft 129kts
19-Apr-20 17:31 49.992214 -108.673857 19 6960ft 130kts
19-Apr-20 17:32 50.023140 -108.645182 19 6657ft 130kts
19-Apr-20 17:33 50.055592 -108.626638 5 6353ft 123kts
19-Apr-20 17:34 50.088484 -108.613044 3 6048ft 121kts
19-Apr-20 17:35 50.121406 -108.599468 4 5753ft 123kts
19-Apr-20 17:36 50.153434 -108.586015 4 5654ft 115kts
19-Apr-20 17:37 50.183820 -108.572978 3 5659ft 113kts
19-Apr-20 17:38 50.214181 -108.559222 17 5650ft 118kts
19-Apr-20 17:39 50.244257 -108.531549 20 5374ft 127kts
19-Apr-20 17:40 50.274684 -108.503675 19 5078ft 128kts
19-Apr-20 17:41 50.305229 -108.475861 18 4846ft 126kts
19-Apr-20 17:42 50.334896 -108.445059 26 4557ft 130kts
19-Apr-20 17:43 50.363522 -108.413518 20 4453ft 119kts
19-Apr-20 17:44 50.392171 -108.385318 20 4461ft 124kts
19-Apr-20 17:45 50.421809 -108.356605 20 4430ft 126kts
19-Apr-20 17:46 50.452518 -108.329081 18 4274ft 127kts
19-Apr-20 17:47 50.483224 -108.301831 19 4176ft 124kts
19-Apr-20 17:48 50.513883 -108.278322 14 4181ft 121kts
19-Apr-20 17:49 50.544590 -108.256043 15 4182ft 122kts
19-Apr-20 17:50 50.575461 -108.234026 14 4178ft 121kts
19-Apr-20 17:51 50.606131 -108.212398 11 4180ft 120kts
19-Apr-20 17:52 50.636884 -108.191706 13 4176ft 121kts
19-Apr-20 17:53 50.668760 -108.171037 13 3927ft 127kts
19-Apr-20 17:54 50.697697 -108.152278 12 3486ft 116kts
19-Apr-20 17:55 50.727015 -108.133038 11 2916ft 112kts
19-Apr-20 17:56 50.750650 -108.103968 44 2816ft 114kts
19-Apr-20 17:57 50.767763 -108.062318 45 2859ft 112kts
19-Apr-20 17:58 50.785707 -108.022684 17 2882ft 102kts
19-Apr-20 17:59 50.809294 -108.019541 338 2874ft 73kts
19-Apr-20 18:00 50.827826 -108.035650 323 2708ft 64kts
19-Apr-20 18:01 50.833336 -108.061527 272 2187ft 68kts
19-Apr-20 18:02 50.833413 -108.071525 272 2148ft 0kts
19-Apr-20 18:03 50.833413 -108.071525 272 2148ft 0kts
19-Apr-20 18:04 50.832879 -108.085778 274 2431ft 61kts
19-Apr-20 18:05 50.833462 -108.070980 86 2148ft 74kts
19-Apr-20 18:06 50.833338 -108.065458 90 2144ft 0kts
19-Apr-20 18:07 50.833436 -108.076427 271 2332ft 59kts
19-Apr-20 18:08 50.831292 -108.107588 269 2856ft 78kts
19-Apr-20 18:09 50.828740 -108.146018 268 3391ft 100kts
19-Apr-20 18:10 50.811966 -108.185129 238 3987ft 113kts
19-Apr-20 18:11 50.793049 -108.221533 242 4404ft 122kts
19-Apr-20 18:12 50.772434 -108.267921 242 4398ft 130kts
19-Apr-20 18:13 50.751580 -108.315072 242 4396ft 131kts
19-Apr-20 18:14 50.731538 -108.362852 244 4395ft 130kts
19-Apr-20 18:15 50.711814 -108.410832 246 4399ft 130kts
19-Apr-20 18:16 50.695135 -108.457265 247 4399ft 129kts

Navigation Log

Ident Type
Flight plan parsing failed, navigation log unavailable